Time;durP1;ratioP1;P1;durP2;ratioP2;P2;SDS_P1;SDS_P2;PMS_P1;PMS_P2;Temp;Humidity;BMP_temperature;BMP_pressure;BME280_temperature;BME280_humidity;BME280_pressure;Samples;Min_cycle;Max_cycle;Signal;HPM_P1;HPM_P2
2023/03/19 00:01:23;;;;;;;13.50;6.93;;;;;;;;;;6156872;23;20088;-85
2023/03/19 00:03:48;;;;;;;12.63;6.85;;;;;;;;;;6130058;23;20024;-83
2023/03/19 00:06:14;;;;;;;11.68;7.25;;;;;;;;;;6144756;23;20018;-85
2023/03/19 00:08:40;;;;;;;11.73;7.05;;;;;;;;;;6133226;23;20018;-85
2023/03/19 00:11:08;;;;;;;10.70;6.38;;;;;;;;;;6159837;23;20095;-83
2023/03/19 00:13:34;;;;;;;12.18;6.65;;;;;;;;;;6151873;23;20304;-84
2023/03/19 00:16:00;;;;;;;13.00;6.82;;;;;;;;;;6098008;23;20024;-83
2023/03/19 00:18:25;;;;;;;13.40;6.88;;;;;;;;;;6121783;23;20875;-84
2023/03/19 00:20:51;;;;;;;12.23;7.13;;;;;;;;;;6120204;23;20013;-84
2023/03/19 00:23:16;;;;;;;13.02;7.28;;;;;;;;;;6121790;23;20080;-85
2023/03/19 00:25:42;;;;;;;10.77;6.60;;;;;;;;;;6146965;23;20041;-84
2023/03/19 00:28:08;;;;;;;12.90;7.18;;;;;;;;;;6147329;23;20463;-84
2023/03/19 00:30:34;;;;;;;12.48;6.80;;;;;;;;;;6121205;23;20017;-83
2023/03/19 00:33:00;;;;;;;12.95;7.03;;;;;;;;;;6147709;23;20463;-83
2023/03/19 00:35:25;;;;;;;12.18;6.80;;;;;;;;;;6145968;23;20017;-84
2023/03/19 00:37:51;;;;;;;11.93;7.85;;;;;;;;;;6146837;23;20124;-84
2023/03/19 00:40:17;;;;;;;11.10;6.47;;;;;;;;;;6120055;23;20498;-83
2023/03/19 00:42:43;;;;;;;12.63;7.30;;;;;;;;;;6148048;23;20017;-84
2023/03/19 00:45:10;;;;;;;10.82;6.97;;;;;;;;;;6120926;23;20021;-84
2023/03/19 00:47:35;;;;;;;13.02;7.43;;;;;;;;;;6120220;23;20039;-84
2023/03/19 00:50:02;;;;;;;13.57;6.97;;;;;;;;;;6120626;23;20014;-83
2023/03/19 00:52:27;;;;;;;10.63;6.53;;;;;;;;;;6095590;23;20037;-83
2023/03/19 00:54:53;;;;;;;11.00;7.15;;;;;;;;;;6146515;23;20087;-83
2023/03/19 00:57:18;;;;;;;12.73;7.32;;;;;;;;;;6119681;23;20100;-83
2023/03/19 00:59:44;;;;;;;13.55;7.57;;;;;;;;;;6120195;23;20017;-84
2023/03/19 01:02:09;;;;;;;11.73;6.60;;;;;;;;;;6119577;23;20037;-83
2023/03/19 01:04:35;;;;;;;14.73;7.07;;;;;;;;;;6146041;23;20021;-83
2023/03/19 01:07:00;;;;;;;12.93;7.35;;;;;;;;;;6145582;23;20022;-84
2023/03/19 01:09:26;;;;;;;12.90;7.07;;;;;;;;;;6121287;23;20049;-83
2023/03/19 01:11:51;;;;;;;13.20;6.75;;;;;;;;;;6134208;23;20019;-83
2023/03/19 01:14:17;;;;;;;14.55;7.03;;;;;;;;;;6123607;23;20021;-83
2023/03/19 01:16:42;;;;;;;11.85;7.25;;;;;;;;;;6095688;23;20014;-84
2023/03/19 01:19:08;;;;;;;12.55;6.72;;;;;;;;;;6099297;23;20025;-85
2023/03/19 01:21:35;;;;;;;11.38;6.97;;;;;;;;;;6149106;23;20100;-85
2023/03/19 01:24:01;;;;;;;13.85;6.88;;;;;;;;;;6122937;23;20021;-84
2023/03/19 01:26:26;;;;;;;11.80;7.25;;;;;;;;;;6122691;23;20403;-85
2023/03/19 01:28:52;;;;;;;12.05;6.85;;;;;;;;;;6147145;23;20032;-84
2023/03/19 01:31:18;;;;;;;14.13;7.43;;;;;;;;;;6148227;23;20018;-83
2023/03/19 01:33:43;;;;;;;12.18;7.53;;;;;;;;;;6098547;23;20029;-84
2023/03/19 01:36:10;;;;;;;12.30;6.85;;;;;;;;;;6133663;23;20060;-84
2023/03/19 01:38:35;;;;;;;12.10;6.57;;;;;;;;;;6146005;23;20080;-83
2023/03/19 01:41:01;;;;;;;12.57;7.30;;;;;;;;;;6133034;23;20084;-83
2023/03/19 01:43:28;;;;;;;12.57;7.53;;;;;;;;;;6146120;23;20021;-84
2023/03/19 01:46:18;;;;;;;12.10;6.80;;;;;;;;;;6132590;23;20435;-84
2023/03/19 01:48:58;;;;;;;12.70;7.45;;;;;;;;;;6119235;23;20460;-83
2023/03/19 01:51:27;;;;;;;12.40;6.63;;;;;;;;;;6118613;23;20456;-83
2023/03/19 01:53:56;;;;;;;11.57;6.78;;;;;;;;;;6118346;23;20533;-84
2023/03/19 01:56:26;;;;;;;13.77;6.72;;;;;;;;;;6118088;23;20018;-84
2023/03/19 01:58:56;;;;;;;11.45;6.60;;;;;;;;;;6092846;23;20765;-84
2023/03/19 02:01:21;;;;;;;12.27;6.28;;;;;;;;;;6117891;23;20023;-83
2023/03/19 02:03:49;;;;;;;12.93;7.35;;;;;;;;;;6105212;23;20398;-83
2023/03/19 02:06:14;;;;;;;12.95;7.47;;;;;;;;;;6104690;23;20052;-84
2023/03/19 02:08:40;;;;;;;11.38;7.00;;;;;;;;;;6121069;23;20017;-83
2023/03/19 02:11:06;;;;;;;12.35;6.97;;;;;;;;;;6094090;23;20020;-83
2023/03/19 02:13:33;;;;;;;12.77;6.70;;;;;;;;;;6166242;23;20395;-85
2023/03/19 02:16:00;;;;;;;12.05;6.90;;;;;;;;;;6121241;23;20452;-84
2023/03/19 02:18:26;;;;;;;11.27;6.63;;;;;;;;;;6094155;23;20018;-84
2023/03/19 02:21:19;;;;;;;11.10;6.40;;;;;;;;;;6093406;23;20017;-84
2023/03/19 02:23:55;;;;;;;9.88;6.10;;;;;;;;;;6141700;23;20017;-84
2023/03/19 02:26:22;;;;;;;11.90;6.80;;;;;;;;;;6144033;23;20116;-83
2023/03/19 02:28:49;;;;;;;12.77;7.30;;;;;;;;;;6105292;23;20013;-84
2023/03/19 02:31:16;;;;;;;12.33;7.93;;;;;;;;;;6118616;23;20029;-83
2023/03/19 02:33:41;;;;;;;14.00;7.13;;;;;;;;;;6117740;23;20326;-84
2023/03/19 02:36:14;;;;;;;12.55;6.97;;;;;;;;;;6120783;23;20541;-84
2023/03/19 02:38:41;;;;;;;14.63;7.90;;;;;;;;;;6121749;23;20511;-84
2023/03/19 02:41:07;;;;;;;13.68;7.28;;;;;;;;;;6147058;23;20021;-83
2023/03/19 02:43:35;;;;;;;12.65;6.75;;;;;;;;;;6118662;23;20025;-83
2023/03/19 02:46:06;;;;;;;12.30;7.07;;;;;;;;;;6144511;23;20017;-83
2023/03/19 02:48:31;;;;;;;11.60;6.47;;;;;;;;;;6119663;23;20352;-83
2023/03/19 02:50:58;;;;;;;13.77;7.10;;;;;;;;;;6105698;23;20085;-83
2023/03/19 02:53:23;;;;;;;12.13;6.85;;;;;;;;;;6095477;23;20447;-84
2023/03/19 02:55:49;;;;;;;11.90;6.82;;;;;;;;;;6144461;23;20040;-85
2023/03/19 02:58:14;;;;;;;13.02;7.05;;;;;;;;;;6119062;23;20383;-84
2023/03/19 03:00:40;;;;;;;12.20;6.18;;;;;;;;;;6144922;23;20013;-84
2023/03/19 03:06:26;;;;;;;12.27;7.03;;;;;;;;;;6121986;23;20051;-83
2023/03/19 03:08:51;;;;;;;13.10;7.32;;;;;;;;;;6145188;23;20018;-83
2023/03/19 03:11:16;;;;;;;11.18;6.07;;;;;;;;;;6100592;23;20021;-84
2023/03/19 03:13:42;;;;;;;11.98;6.70;;;;;;;;;;6124529;23;20071;-83
2023/03/19 03:16:07;;;;;;;11.05;6.53;;;;;;;;;;6145705;23;20033;-83
2023/03/19 03:18:33;;;;;;;12.40;7.45;;;;;;;;;;6118789;23;20089;-83
2023/03/19 03:20:58;;;;;;;12.52;6.93;;;;;;;;;;6094883;23;20439;-83
2023/03/19 03:23:24;;;;;;;13.18;7.15;;;;;;;;;;6120910;23;20048;-83
2023/03/19 03:25:50;;;;;;;13.68;7.20;;;;;;;;;;6119248;23;20020;-84
2023/03/19 03:28:16;;;;;;;12.27;6.40;;;;;;;;;;6131653;23;20085;-83
2023/03/19 03:30:42;;;;;;;11.32;6.80;;;;;;;;;;6120254;23;20245;-83
2023/03/19 03:33:08;;;;;;;13.85;7.07;;;;;;;;;;6147181;23;20017;-83
2023/03/19 03:35:34;;;;;;;13.70;7.25;;;;;;;;;;6120959;23;20017;-84
2023/03/19 03:37:59;;;;;;;12.20;7.25;;;;;;;;;;6121883;23;20140;-84
2023/03/19 03:40:26;;;;;;;11.88;6.57;;;;;;;;;;6147093;23;20721;-84
2023/03/19 03:42:51;;;;;;;12.68;7.50;;;;;;;;;;6121289;23;20009;-84
2023/03/19 03:45:17;;;;;;;13.98;7.78;;;;;;;;;;6119960;23;20337;-84
2023/03/19 03:47:42;;;;;;;13.07;7.93;;;;;;;;;;6146292;23;20021;-84
2023/03/19 03:50:09;;;;;;;11.38;6.90;;;;;;;;;;6121051;23;20017;-83
2023/03/19 03:52:35;;;;;;;13.18;7.18;;;;;;;;;;6146256;23;20049;-83
2023/03/19 03:55:01;;;;;;;14.02;7.20;;;;;;;;;;6147481;23;20052;-84
2023/03/19 03:57:26;;;;;;;13.13;7.20;;;;;;;;;;6146141;23;20014;-84
2023/03/19 03:59:52;;;;;;;12.02;6.95;;;;;;;;;;6121544;23;20443;-84
2023/03/19 04:02:18;;;;;;;12.13;6.85;;;;;;;;;;6120855;23;20104;-84
2023/03/19 04:04:43;;;;;;;13.07;6.97;;;;;;;;;;6096926;23;20088;-84
2023/03/19 04:07:09;;;;;;;13.85;7.07;;;;;;;;;;6119672;23;20467;-84
2023/03/19 04:09:34;;;;;;;14.02;7.45;;;;;;;;;;6121085;23;20020;-84
2023/03/19 04:12:01;;;;;;;10.15;6.32;;;;;;;;;;6147813;23;20075;-83
2023/03/19 04:14:26;;;;;;;13.10;7.25;;;;;;;;;;6120969;23;20355;-83
2023/03/19 04:16:52;;;;;;;13.45;7.20;;;;;;;;;;6146135;23;20018;-84
2023/03/19 04:19:19;;;;;;;12.88;7.55;;;;;;;;;;6120628;23;20084;-84
2023/03/19 04:21:44;;;;;;;12.48;7.20;;;;;;;;;;6121741;23;20343;-84
2023/03/19 04:24:10;;;;;;;11.73;6.95;;;;;;;;;;6148843;23;20021;-84
2023/03/19 04:26:36;;;;;;;12.73;6.65;;;;;;;;;;6123953;23;20025;-84
2023/03/19 04:29:02;;;;;;;11.95;7.18;;;;;;;;;;6121974;23;20027;-84
2023/03/19 04:31:27;;;;;;;14.48;7.10;;;;;;;;;;6146481;23;20088;-84
2023/03/19 04:33:53;;;;;;;13.45;7.90;;;;;;;;;;6145449;23;20055;-84
2023/03/19 04:36:18;;;;;;;16.60;7.82;;;;;;;;;;6143715;23;20072;-84
2023/03/19 04:38:44;;;;;;;13.63;7.63;;;;;;;;;;6146700;23;20025;-84
2023/03/19 04:41:09;;;;;;;13.00;7.47;;;;;;;;;;6146825;23;20523;-83
2023/03/19 04:43:35;;;;;;;13.77;7.97;;;;;;;;;;6120779;23;20013;-83
2023/03/19 04:46:01;;;;;;;14.85;8.68;;;;;;;;;;6145258;23;20017;-83
2023/03/19 04:48:26;;;;;;;15.05;8.80;;;;;;;;;;6120581;23;20474;-82
2023/03/19 04:50:52;;;;;;;13.82;8.23;;;;;;;;;;6145910;23;20017;-82
2023/03/19 04:53:19;;;;;;;15.20;8.27;;;;;;;;;;6145752;23;20017;-83
2023/03/19 04:55:46;;;;;;;14.05;8.60;;;;;;;;;;6120223;23;20696;-82
2023/03/19 04:58:11;;;;;;;16.13;10.10;;;;;;;;;;6120564;23;20054;-83
2023/03/19 05:00:37;;;;;;;17.95;9.25;;;;;;;;;;6094285;23;20018;-83
2023/03/19 05:03:02;;;;;;;21.27;10.43;;;;;;;;;;6124704;23;20037;-85
2023/03/19 05:05:27;;;;;;;16.25;9.48;;;;;;;;;;6148100;23;20021;-85
2023/03/19 05:07:53;;;;;;;16.48;9.77;;;;;;;;;;6148858;23;20444;-85
2023/03/19 05:10:18;;;;;;;18.25;9.88;;;;;;;;;;6152397;23;20076;-83
2023/03/19 05:12:44;;;;;;;14.88;9.82;;;;;;;;;;6127270;23;20017;-84
2023/03/19 05:15:10;;;;;;;18.85;10.60;;;;;;;;;;6102243;23;20022;-85
2023/03/19 05:17:35;;;;;;;17.13;10.05;;;;;;;;;;6147610;23;20470;-85
2023/03/19 05:20:01;;;;;;;19.67;10.77;;;;;;;;;;6098727;23;20018;-84
2023/03/19 05:22:27;;;;;;;18.55;10.27;;;;;;;;;;6122780;23;20084;-85
2023/03/19 05:24:53;;;;;;;18.80;10.43;;;;;;;;;;6100276;23;20014;-85
2023/03/19 05:27:18;;;;;;;16.38;10.38;;;;;;;;;;6096997;23;20017;-83
2023/03/19 05:29:43;;;;;;;17.30;9.25;;;;;;;;;;6099299;23;20085;-83
2023/03/19 05:32:09;;;;;;;19.33;10.27;;;;;;;;;;6124531;23;20356;-84
2023/03/19 05:34:35;;;;;;;17.38;9.35;;;;;;;;;;6149616;23;20447;-84
2023/03/19 05:37:00;;;;;;;16.98;9.40;;;;;;;;;;6122091;23;20013;-85
2023/03/19 05:39:26;;;;;;;17.10;9.50;;;;;;;;;;6150005;23;20355;-85
2023/03/19 05:41:51;;;;;;;18.00;11.30;;;;;;;;;;6148888;23;20009;-84
2023/03/19 05:44:17;;;;;;;18.17;10.63;;;;;;;;;;6122140;23;20029;-85
2023/03/19 05:46:43;;;;;;;18.52;10.73;;;;;;;;;;6120522;23;20060;-85
2023/03/19 05:49:08;;;;;;;19.17;10.63;;;;;;;;;;6145621;23;20025;-85
2023/03/19 05:51:34;;;;;;;19.42;10.88;;;;;;;;;;6146343;23;20017;-85
2023/03/19 05:54:00;;;;;;;19.23;11.07;;;;;;;;;;6147189;23;20467;-85
2023/03/19 05:56:26;;;;;;;17.13;10.38;;;;;;;;;;6120166;23;20017;-85
2023/03/19 05:58:52;;;;;;;20.63;11.10;;;;;;;;;;6146592;23;20017;-85
2023/03/19 06:01:17;;;;;;;20.02;10.07;;;;;;;;;;6119909;23;20043;-85
2023/03/19 06:03:42;;;;;;;17.15;10.20;;;;;;;;;;6119924;23;20447;-84
2023/03/19 06:06:11;;;;;;;18.40;11.00;;;;;;;;;;6117673;23;20403;-84
2023/03/19 06:08:36;;;;;;;18.05;9.95;;;;;;;;;;6095189;23;20020;-85
2023/03/19 06:11:02;;;;;;;17.30;10.35;;;;;;;;;;6119367;23;20017;-85
2023/03/19 06:13:29;;;;;;;17.17;10.65;;;;;;;;;;6147347;23;20029;-85
2023/03/19 06:15:55;;;;;;;17.67;10.32;;;;;;;;;;6146867;23;20738;-86
2023/03/19 06:18:20;;;;;;;17.75;10.32;;;;;;;;;;6119350;23;20021;-86
2023/03/19 06:20:47;;;;;;;16.40;10.02;;;;;;;;;;6118785;23;20017;-86
2023/03/19 06:23:12;;;;;;;16.92;9.52;;;;;;;;;;6145650;23;20435;-86
2023/03/19 06:25:37;;;;;;;15.55;9.85;;;;;;;;;;6095236;23;20017;-86
2023/03/19 06:28:04;;;;;;;17.65;10.52;;;;;;;;;;6144982;23;20200;-86
2023/03/19 06:30:30;;;;;;;17.52;10.73;;;;;;;;;;6119309;23;20017;-84
2023/03/19 06:32:55;;;;;;;17.25;9.15;;;;;;;;;;6119279;23;20057;-85
2023/03/19 06:35:21;;;;;;;16.98;10.25;;;;;;;;;;6119314;23;20478;-84
2023/03/19 06:37:47;;;;;;;19.13;10.45;;;;;;;;;;6147843;23;20411;-84
2023/03/19 06:40:13;;;;;;;20.60;10.80;;;;;;;;;;6146038;23;20332;-83
2023/03/19 06:42:39;;;;;;;17.58;9.70;;;;;;;;;;6121299;23;20084;-84
2023/03/19 06:45:06;;;;;;;18.42;9.95;;;;;;;;;;6145665;23;20463;-83
2023/03/19 06:47:32;;;;;;;17.42;9.80;;;;;;;;;;6118110;23;20021;-84
2023/03/19 06:49:58;;;;;;;22.08;10.00;;;;;;;;;;6095983;23;20024;-83
2023/03/19 06:52:24;;;;;;;14.52;8.93;;;;;;;;;;6118504;23;20010;-84
2023/03/19 06:54:49;;;;;;;15.90;9.48;;;;;;;;;;6122426;23;20013;-85
2023/03/19 06:57:15;;;;;;;18.65;10.25;;;;;;;;;;6096862;23;20092;-85
2023/03/19 06:59:41;;;;;;;17.23;10.02;;;;;;;;;;6151006;23;20009;-85
2023/03/19 07:02:10;;;;;;;19.75;11.02;;;;;;;;;;6100392;23;20013;-85
2023/03/19 07:04:35;;;;;;;17.60;9.93;;;;;;;;;;6097672;23;20012;-85
2023/03/19 07:07:01;;;;;;;17.52;10.43;;;;;;;;;;6097335;23;20017;-82
2023/03/19 07:09:27;;;;;;;16.58;10.70;;;;;;;;;;6146420;23;20455;-80
2023/03/19 07:11:52;;;;;;;18.25;10.68;;;;;;;;;;6096541;23;20013;-81
2023/03/19 07:14:17;;;;;;;80.90;36.13;;;;;;;;;;6121027;23;20021;-80
2023/03/19 07:16:43;;;;;;;22.92;13.45;;;;;;;;;;6147188;23;20009;-81
2023/03/19 07:19:08;;;;;;;23.42;12.27;;;;;;;;;;6096278;23;20041;-81
2023/03/19 07:21:34;;;;;;;19.08;11.00;;;;;;;;;;6095614;23;20040;-81
2023/03/19 07:24:00;;;;;;;17.20;10.52;;;;;;;;;;6097788;23;20017;-81
2023/03/19 07:26:26;;;;;;;19.52;10.82;;;;;;;;;;6096421;23;20021;-81
2023/03/19 07:28:51;;;;;;;17.75;10.02;;;;;;;;;;6121540;23;20041;-81
2023/03/19 07:31:17;;;;;;;19.05;11.15;;;;;;;;;;6120527;23;20092;-82
2023/03/19 07:33:42;;;;;;;16.98;9.73;;;;;;;;;;6120472;23;20065;-80
2023/03/19 07:36:08;;;;;;;18.27;10.75;;;;;;;;;;6120304;23;20482;-80
2023/03/19 07:38:34;;;;;;;17.20;10.85;;;;;;;;;;6146545;23;20150;-80
2023/03/19 07:40:59;;;;;;;15.15;9.70;;;;;;;;;;6146628;23;20451;-80
2023/03/19 07:43:25;;;;;;;17.08;9.10;;;;;;;;;;6120303;23;20044;-79
2023/03/19 07:45:50;;;;;;;16.63;9.93;;;;;;;;;;6094423;23;20177;-80
2023/03/19 07:48:16;;;;;;;13.80;9.27;;;;;;;;;;6119690;23;20151;-80
2023/03/19 07:50:41;;;;;;;15.80;10.25;;;;;;;;;;6120358;23;20335;-80
2023/03/19 07:53:07;;;;;;;14.18;9.00;;;;;;;;;;6120877;23;20017;-80
2023/03/19 07:55:32;;;;;;;15.65;9.95;;;;;;;;;;6120120;23;20037;-80
2023/03/19 07:57:58;;;;;;;16.17;9.85;;;;;;;;;;6096526;23;20139;-80
2023/03/19 08:00:23;;;;;;;21.27;10.90;;;;;;;;;;6081819;23;20017;-80
2023/03/19 08:02:48;;;;;;;15.90;10.27;;;;;;;;;;6095056;23;20041;-80
2023/03/19 08:05:21;;;;;;;17.15;10.07;;;;;;;;;;6087901;23;20026;-80
2023/03/19 08:07:48;;;;;;;16.90;10.00;;;;;;;;;;6117470;23;20092;-80
2023/03/19 08:10:13;;;;;;;19.88;11.23;;;;;;;;;;6119916;23;20009;-80
2023/03/19 08:12:40;;;;;;;17.38;10.55;;;;;;;;;;6118830;23;20447;-80
2023/03/19 08:15:07;;;;;;;17.48;10.55;;;;;;;;;;6096608;23;20020;-79
2023/03/19 08:17:37;;;;;;;16.35;10.57;;;;;;;;;;6145746;23;20333;-80
2023/03/19 08:20:10;;;;;;;15.15;10.18;;;;;;;;;;6121156;23;20597;-80
2023/03/19 08:22:37;;;;;;;17.58;10.55;;;;;;;;;;6095041;23;20355;-80
2023/03/19 08:25:04;;;;;;;17.73;10.90;;;;;;;;;;6119907;23;20013;-79
2023/03/19 08:27:30;;;;;;;18.67;10.48;;;;;;;;;;6120473;23;20387;-80
2023/03/19 08:29:56;;;;;;;20.85;11.40;;;;;;;;;;6120006;23;20021;-79
2023/03/19 08:32:21;;;;;;;18.60;11.40;;;;;;;;;;6146104;23;20109;-79
2023/03/19 08:34:47;;;;;;;20.05;12.20;;;;;;;;;;6095619;23;20127;-81
2023/03/19 08:37:12;;;;;;;19.50;11.52;;;;;;;;;;6119186;23;20088;-80
2023/03/19 08:39:37;;;;;;;17.42;10.90;;;;;;;;;;6106203;23;20029;-81
2023/03/19 08:42:04;;;;;;;19.73;11.55;;;;;;;;;;6119515;23;20036;-81
2023/03/19 08:44:30;;;;;;;21.25;11.73;;;;;;;;;;6145483;23;20014;-79
2023/03/19 08:46:56;;;;;;;19.17;11.07;;;;;;;;;;6095569;23;20597;-80
2023/03/19 08:49:21;;;;;;;16.70;10.82;;;;;;;;;;6095577;23;20467;-81
2023/03/19 08:51:47;;;;;;;21.08;11.73;;;;;;;;;;6146457;23;20009;-79
2023/03/19 08:54:13;;;;;;;18.88;11.48;;;;;;;;;;6119222;23;20074;-78
2023/03/19 08:56:39;;;;;;;19.65;11.38;;;;;;;;;;6105739;23;20585;-77
2023/03/19 08:59:05;;;;;;;20.10;11.60;;;;;;;;;;6145064;23;20021;-78
2023/03/19 09:01:34;;;;;;;34.97;17.83;;;;;;;;;;6146870;23;20391;-77
2023/03/19 09:04:01;;;;;;;22.25;12.70;;;;;;;;;;6145745;23;20005;-77
2023/03/19 09:06:26;;;;;;;20.67;11.25;;;;;;;;;;6094722;23;20328;-77
2023/03/19 09:08:51;;;;;;;17.73;11.05;;;;;;;;;;6119222;23;20018;-80
2023/03/19 09:11:17;;;;;;;17.98;10.32;;;;;;;;;;6094483;23;20018;-79
2023/03/19 09:13:42;;;;;;;19.33;10.85;;;;;;;;;;6119963;23;20017;-79
2023/03/19 09:16:08;;;;;;;18.05;10.45;;;;;;;;;;6071376;23;20355;-79
2023/03/19 09:18:35;;;;;;;17.35;10.43;;;;;;;;;;6145336;23;20469;-78
2023/03/19 09:21:01;;;;;;;17.70;10.15;;;;;;;;;;6095662;23;20024;-78
2023/03/19 09:23:26;;;;;;;16.98;10.15;;;;;;;;;;6120251;23;20013;-79
2023/03/19 09:25:52;;;;;;;17.33;9.30;;;;;;;;;;6119290;23;20025;-81
2023/03/19 09:28:18;;;;;;;17.50;9.57;;;;;;;;;;6095156;23;20029;-76
2023/03/19 09:30:48;;;;;;;18.73;9.88;;;;;;;;;;6118739;23;20021;-76
2023/03/19 09:33:16;;;;;;;15.90;10.18;;;;;;;;;;6119321;23;20017;-76
2023/03/19 09:35:42;;;;;;;13.77;8.45;;;;;;;;;;6119161;23;20340;-76
2023/03/19 09:38:08;;;;;;;16.38;9.43;;;;;;;;;;6118876;23;20021;-75
2023/03/19 09:40:46;;;;;;;14.32;8.50;;;;;;;;;;6119068;23;20014;-75
2023/03/19 09:43:17;;;;;;;16.55;9.18;;;;;;;;;;6095336;23;20026;-75
2023/03/19 09:46:09;;;;;;;15.70;8.43;;;;;;;;;;6083283;23;20017;-75
2023/03/19 09:48:55;;;;;;;13.13;7.80;;;;;;;;;;6079063;23;20097;-76
2023/03/19 09:51:29;;;;;;;12.63;8.32;;;;;;;;;;6092744;23;20017;-75
2023/03/19 09:54:02;;;;;;;13.32;8.15;;;;;;;;;;6145216;23;20048;-75
2023/03/19 09:56:28;;;;;;;12.63;8.02;;;;;;;;;;6093505;23;20466;-75
2023/03/19 09:58:54;;;;;;;10.90;7.55;;;;;;;;;;6118888;23;20009;-75
2023/03/19 10:01:36;;;;;;;12.13;7.45;;;;;;;;;;6118939;23;20333;-75
2023/03/19 10:04:29;;;;;;;23.20;12.15;;;;;;;;;;6119560;23;20040;-77
2023/03/19 10:07:05;;;;;;;12.85;8.05;;;;;;;;;;6118864;23;20530;-75
2023/03/19 10:09:43;;;;;;;13.13;7.93;;;;;;;;;;6119187;23;20098;-75
2023/03/19 10:12:11;;;;;;;;;;;;;;;;;;6144537;23;20032;-75
2023/03/19 10:15:14;;;;;;;11.25;7.00;;;;;;;;;;6145002;23;19912;-76
2023/03/19 10:17:47;;;;;;;11.80;7.35;;;;;;;;;;6118151;23;20084;-76
2023/03/19 10:20:21;;;;;;;10.57;6.93;;;;;;;;;;6119470;23;20136;-82
2023/03/19 10:22:50;;;;;;;11.38;7.53;;;;;;;;;;6146674;23;20491;-81
2023/03/19 10:25:21;;;;;;;13.70;8.07;;;;;;;;;;6118941;23;20041;-81
2023/03/19 10:27:53;;;;;;;11.48;7.60;;;;;;;;;;6119272;23;20017;-79
2023/03/19 10:30:20;;;;;;;12.60;7.80;;;;;;;;;;6106636;23;20088;-80
2023/03/19 10:32:53;;;;;;;12.00;7.38;;;;;;;;;;6119498;23;20080;-82
2023/03/19 10:35:23;;;;;;;11.18;6.97;;;;;;;;;;6144940;23;20435;-84
2023/03/19 10:37:49;;;;;;;9.45;6.40;;;;;;;;;;6145016;23;20100;-82
2023/03/19 10:40:25;;;;;;;10.90;6.45;;;;;;;;;;6119222;23;20459;-82
2023/03/19 10:43:13;;;;;;;9.68;5.97;;;;;;;;;;6118431;23;20013;-81
2023/03/19 10:45:39;;;;;;;12.05;6.75;;;;;;;;;;6144389;23;20088;-83
2023/03/19 10:48:04;;;;;;;11.00;6.03;;;;;;;;;;6094299;23;20052;-81
2023/03/19 10:50:34;;;;;;;8.25;5.53;;;;;;;;;;6118457;23;20351;-85
2023/03/19 10:53:12;;;;;;;9.90;5.80;;;;;;;;;;6119102;23;20014;-84
2023/03/19 10:55:38;;;;;;;10.80;6.13;;;;;;;;;;6086925;23;20413;-82
2023/03/19 10:58:17;;;;;;;9.88;5.35;;;;;;;;;;6116545;23;20097;-84
2023/03/19 11:00:47;;;;;;;7.85;4.53;;;;;;;;;;6104457;23;20013;-83
2023/03/19 11:03:38;;;;;;;8.70;4.80;;;;;;;;;;6142697;23;20018;-86
2023/03/19 11:06:20;;;;;;;8.65;4.93;;;;;;;;;;6144510;23;20040;-82
2023/03/19 11:09:13;;;;;;;7.57;4.85;;;;;;;;;;6096164;23;20052;-87
2023/03/19 11:11:41;;;;;;;8.20;4.90;;;;;;;;;;6114222;23;20100;-87
2023/03/19 11:14:32;;;;;;;7.05;4.30;;;;;;;;;;6145379;23;20018;-86
2023/03/19 11:17:01;;;;;;;7.68;4.72;;;;;;;;;;6106045;23;20458;-81
2023/03/19 11:19:36;;;;;;;12.30;7.43;;;;;;;;;;6121752;23;20014;-85
2023/03/19 11:22:10;;;;;;;8.43;5.00;;;;;;;;;;6117501;23;20021;-84
2023/03/19 11:31:20;;;;;;;8.43;4.88;;;;;;;;;;6043999;23;20067;-86
2023/03/19 11:34:09;;;;;;;7.72;4.60;;;;;;;;;;6085396;23;20427;-85
2023/03/19 11:37:12;;;;;;;8.07;4.72;;;;;;;;;;6125168;23;20101;-83
2023/03/19 11:40:02;;;;;;;7.03;4.50;;;;;;;;;;6085591;23;20344;-84
2023/03/19 11:42:38;;;;;;;8.85;5.15;;;;;;;;;;6119214;23;20009;-86
2023/03/19 11:45:25;;;;;;;7.60;4.75;;;;;;;;;;6119250;23;20028;-84
2023/03/19 11:47:58;;;;;;;9.05;4.35;;;;;;;;;;6106850;23;20489;-77
2023/03/19 11:50:29;;;;;;;8.18;4.93;;;;;;;;;;6094864;23;20340;-76
2023/03/19 11:53:02;;;;;;;8.10;4.90;;;;;;;;;;6121012;23;20025;-76
2023/03/19 11:55:41;;;;;;;9.50;4.55;;;;;;;;;;6094948;23;20505;-76
2023/03/19 11:58:25;;;;;;;8.63;4.75;;;;;;;;;;6146879;23;20017;-75
2023/03/19 12:00:52;;;;;;;7.82;4.75;;;;;;;;;;6120358;23;20017;-75
2023/03/19 12:03:47;;;;;;;6.75;4.30;;;;;;;;;;6095978;23;20032;-75
2023/03/19 12:06:28;;;;;;;7.50;4.07;;;;;;;;;;6120295;23;20355;-80
2023/03/19 12:09:02;;;;;;;8.52;4.60;;;;;;;;;;6119934;23;20069;-76
2023/03/19 12:11:31;;;;;;;8.68;5.00;;;;;;;;;;6146667;23;20549;-75
2023/03/19 12:14:16;;;;;;;7.80;4.80;;;;;;;;;;6146486;23;20023;-75
2023/03/19 12:17:03;;;;;;;8.50;5.15;;;;;;;;;;6118887;23;20467;-75
2023/03/19 12:19:56;;;;;;;7.57;4.50;;;;;;;;;;6146687;23;20506;-75
2023/03/19 12:22:43;;;;;;;9.88;5.38;;;;;;;;;;6146258;23;21054;-75
2023/03/19 12:25:30;;;;;;;8.07;4.82;;;;;;;;;;6119628;23;20447;-76
2023/03/19 12:27:58;;;;;;;8.55;5.20;;;;;;;;;;6146471;23;20748;-76
2023/03/19 12:30:38;;;;;;;6.15;4.30;;;;;;;;;;6117295;23;20123;-77
2023/03/19 12:33:25;;;;;;;7.72;4.97;;;;;;;;;;6120465;23;20017;-77
2023/03/19 12:36:14;;;;;;;9.10;5.00;;;;;;;;;;6094730;23;20017;-76
2023/03/19 12:38:49;;;;;;;10.25;4.72;;;;;;;;;;6002610;23;20386;-77
2023/03/19 12:41:27;;;;;;;7.68;4.40;;;;;;;;;;6003205;23;20031;-76
2023/03/19 12:44:12;;;;;;;9.63;4.78;;;;;;;;;;6003345;23;20023;-77
2023/03/19 12:46:37;;;;;;;8.35;4.35;;;;;;;;;;6002656;23;20393;-77
2023/03/19 12:49:09;;;;;;;8.95;4.65;;;;;;;;;;6027038;23;20098;-76
2023/03/19 12:51:37;;;;;;;7.78;4.95;;;;;;;;;;6026570;23;20051;-79
2023/03/19 12:54:28;;;;;;;6.63;4.60;;;;;;;;;;5996008;23;20031;-79
2023/03/19 13:31:23;;;;;;;4.78;3.08;;;;;;;;;;5607918;25;2138095;-87
2023/03/19 13:38:10;;;;;;;6.70;3.65;;;;;;;;;;5634070;25;20033;-77
2023/03/19 13:40:37;;;;;;;6.55;3.40;;;;;;;;;;5627290;25;20671;-77
2023/03/19 13:43:03;;;;;;;6.63;3.50;;;;;;;;;;5726764;24;20035;-78
2023/03/19 13:45:28;;;;;;;6.63;3.88;;;;;;;;;;5915536;24;20257;-76
2023/03/19 13:47:57;;;;;;;5.60;3.50;;;;;;;;;;5945913;24;20028;-78
2023/03/19 13:51:25;;;;;;;6.82;4.00;;;;;;;;;;5973378;23;20029;-78
2023/03/19 13:54:07;;;;;;;4.82;3.30;;;;;;;;;;6079616;23;20037;-77
2023/03/19 13:56:56;;;;;;;6.60;3.90;;;;;;;;;;6090569;23;20006;-80
2023/03/19 13:59:25;;;;;;;5.97;3.45;;;;;;;;;;6115030;23;20022;-78
2023/03/19 14:01:51;;;;;;;7.50;3.80;;;;;;;;;;6113934;23;20096;-78
2023/03/19 14:04:16;;;;;;;6.28;3.53;;;;;;;;;;6090517;23;20096;-77
2023/03/19 14:07:05;;;;;;;6.30;3.45;;;;;;;;;;6115639;23;20110;-78
2023/03/19 14:09:31;;;;;;;6.00;3.65;;;;;;;;;;6113251;23;20096;-78
2023/03/19 14:12:09;;;;;;;6.85;3.40;;;;;;;;;;6113469;23;20049;-78
2023/03/19 14:14:39;;;;;;;5.93;3.35;;;;;;;;;;6116368;23;20085;-78
2023/03/19 14:17:14;;;;;;;6.15;3.25;;;;;;;;;;6115006;23;20057;-78
2023/03/19 14:19:40;;;;;;;4.70;2.72;;;;;;;;;;6114061;23;20018;-77
2023/03/19 14:22:19;;;;;;;6.57;3.40;;;;;;;;;;6089992;23;20533;-78
2023/03/19 14:25:16;;;;;;;6.07;3.60;;;;;;;;;;6090197;23;20423;-78
2023/03/19 14:27:52;;;;;;;5.25;3.25;;;;;;;;;;6113161;23;20452;-77
2023/03/19 14:30:34;;;;;;;6.05;3.30;;;;;;;;;;6089047;23;20026;-77
2023/03/19 14:33:04;;;;;;;6.88;3.42;;;;;;;;;;6073828;23;20137;-77
2023/03/19 14:35:35;;;;;;;6.32;3.20;;;;;;;;;;6088790;23;20016;-77
2023/03/19 14:38:09;;;;;;;7.15;3.72;;;;;;;;;;6090662;23;20623;-77
2023/03/19 14:40:45;;;;;;;7.38;3.42;;;;;;;;;;6113795;23;20021;-78
2023/03/19 14:43:38;;;;;;;5.45;3.38;;;;;;;;;;6117946;23;20482;-78
2023/03/19 14:46:04;;;;;;;8.20;4.10;;;;;;;;;;6143695;23;20048;-77
2023/03/19 14:48:55;;;;;;;6.40;3.17;;;;;;;;;;6118497;23;20682;-77
2023/03/19 14:51:45;;;;;;;6.63;3.33;;;;;;;;;;6143174;23;20018;-78
2023/03/19 14:54:10;;;;;;;6.85;3.63;;;;;;;;;;6144609;23;20448;-77
2023/03/19 14:56:36;;;;;;;7.85;3.60;;;;;;;;;;6143251;23;20024;-77
2023/03/19 14:59:04;;;;;;;6.20;3.97;;;;;;;;;;6118912;23;20022;-78
2023/03/19 15:01:31;;;;;;;6.72;3.60;;;;;;;;;;6118193;23;20020;-77
2023/03/19 15:04:08;;;;;;;6.55;3.45;;;;;;;;;;6144693;23;20224;-77
2023/03/19 15:06:38;;;;;;;6.47;4.03;;;;;;;;;;6117042;23;20013;-78
2023/03/19 15:09:19;;;;;;;6.85;3.72;;;;;;;;;;6118531;23;20018;-78
2023/03/19 15:11:57;;;;;;;6.13;3.53;;;;;;;;;;6143742;23;20100;-78
2023/03/19 15:15:02;;;;;;;5.90;3.50;;;;;;;;;;6144116;23;20076;-78
2023/03/19 15:17:29;;;;;;;6.25;3.70;;;;;;;;;;6098453;23;20041;-78
2023/03/19 15:19:55;;;;;;;7.95;4.25;;;;;;;;;;6119829;23;20014;-78
2023/03/19 15:22:26;;;;;;;7.30;3.78;;;;;;;;;;6093797;23;20068;-77
2023/03/19 15:24:51;;;;;;;7.28;3.80;;;;;;;;;;6120497;23;20448;-77
2023/03/19 15:27:24;;;;;;;6.35;4.07;;;;;;;;;;6094863;23;20132;-77
2023/03/19 15:29:51;;;;;;;7.53;3.92;;;;;;;;;;6120022;23;20514;-77
2023/03/19 15:32:33;;;;;;;7.70;3.95;;;;;;;;;;6119016;23;20044;-77
2023/03/19 15:34:59;;;;;;;7.30;3.90;;;;;;;;;;6095685;23;20024;-77